createdAt,value
2019-01-28T00:01:50.856Z,125.00
2019-01-28T00:04:18.429Z,129.43
2019-01-28T00:06:45.877Z,109.83
2019-01-28T00:09:13.258Z,121.67
2019-01-28T00:11:40.683Z,123.90
2019-01-28T00:14:14.077Z,122.10
2019-01-28T00:16:41.492Z,120.70
2019-01-28T00:19:08.899Z,115.33
2019-01-28T00:21:36.362Z,128.83
2019-01-28T00:24:04.324Z,121.90
2019-01-28T00:26:31.728Z,109.63
2019-01-28T00:28:59.306Z,131.63
2019-01-28T00:31:26.808Z,134.17
2019-01-28T00:33:54.315Z,116.07
2019-01-28T00:36:21.694Z,126.00
2019-01-28T00:38:49.228Z,126.13
2019-01-28T00:41:16.651Z,133.70
2019-01-28T00:43:44.002Z,135.73
2019-01-28T00:46:11.425Z,138.40
2019-01-28T00:48:38.951Z,124.80
2019-01-28T00:51:06.333Z,126.00
2019-01-28T00:53:33.783Z,131.37
2019-01-28T00:56:01.204Z,136.87
2019-01-28T00:58:28.560Z,108.27
2019-01-28T01:00:55.984Z,109.53
2019-01-28T01:03:23.418Z,118.40
2019-01-28T01:05:51.253Z,103.80
2019-01-28T01:08:18.673Z,122.43
2019-01-28T01:10:46.095Z,119.00
2019-01-28T01:13:13.477Z,117.40
2019-01-28T01:15:41.023Z,118.90
2019-01-28T01:18:08.535Z,109.23
2019-01-28T01:20:36.116Z,102.77
2019-01-28T01:23:03.532Z,124.93
2019-01-28T01:25:30.978Z,106.87
2019-01-28T01:27:58.457Z,118.70
2019-01-28T01:30:26.040Z,107.90
2019-01-28T01:32:53.435Z,100.67
2019-01-28T01:35:20.868Z,118.10
2019-01-28T01:37:48.293Z,102.30
2019-01-28T01:40:16.002Z,109.63
2019-01-28T01:42:43.965Z,99.67
2019-01-28T01:45:13.309Z,101.93
2019-01-28T01:47:40.739Z,104.80
2019-01-28T01:50:08.632Z,87.90
2019-01-28T01:52:36.050Z,110.33
2019-01-28T01:55:04.607Z,103.03
2019-01-28T01:57:32.050Z,110.53
2019-01-28T01:59:59.503Z,105.27
2019-01-28T02:02:33.329Z,107.57
2019-01-28T02:04:56.267Z,113.40
2019-01-28T02:07:23.650Z,106.07
2019-01-28T02:09:51.081Z,104.20
2019-01-28T02:12:18.546Z,103.63
2019-01-28T02:14:45.961Z,106.10
2019-01-28T02:17:13.430Z,102.30
2019-01-28T02:19:40.849Z,85.73
2019-01-28T02:22:08.271Z,119.83
2019-01-28T02:24:35.738Z,110.93
2019-01-28T02:27:03.231Z,100.77
2019-01-28T02:29:30.680Z,107.43
2019-01-28T02:31:59.067Z,95.77
2019-01-28T02:34:26.430Z,104.20
2019-01-28T02:36:53.855Z,92.73
2019-01-28T02:39:21.277Z,95.70
2019-01-28T02:41:48.654Z,93.70
2019-01-28T02:44:16.098Z,82.83
2019-01-28T02:46:43.518Z,95.47
2019-01-28T02:49:10.973Z,73.33
2019-01-28T02:51:38.512Z,85.23
2019-01-28T02:54:05.953Z,79.73
2019-01-28T02:56:33.400Z,88.03
2019-01-28T02:59:00.785Z,68.23
2019-01-28T03:01:28.257Z,82.63
2019-01-28T03:03:55.725Z,76.47
2019-01-28T03:06:23.106Z,74.77
2019-01-28T03:08:50.577Z,74.23
2019-01-28T03:11:18.045Z,83.37
2019-01-28T03:13:45.531Z,80.10
2019-01-28T03:16:12.922Z,76.67
2019-01-28T03:18:40.530Z,76.97
2019-01-28T03:21:08.079Z,76.43
2019-01-28T03:23:35.546Z,69.57
2019-01-28T03:26:03.052Z,75.27
2019-01-28T03:28:30.476Z,68.60
2019-01-28T03:30:58.002Z,72.57
2019-01-28T03:33:25.603Z,72.23
2019-01-28T03:35:53.046Z,74.40
2019-01-28T03:38:20.611Z,73.47
2019-01-28T03:40:48.045Z,69.33
2019-01-28T03:43:15.489Z,61.07
2019-01-28T03:45:42.967Z,66.67
2019-01-28T03:48:10.567Z,64.10
2019-01-28T03:50:37.948Z,57.63
2019-01-28T03:53:05.661Z,62.17
2019-01-28T03:55:33.173Z,59.00
2019-01-28T03:58:00.735Z,63.40
2019-01-28T04:00:28.324Z,57.70
2019-01-28T04:02:55.779Z,52.90
2019-01-28T04:05:23.426Z,56.60
2019-01-28T04:07:50.849Z,62.97
2019-01-28T04:10:20.548Z,60.10
2019-01-28T04:12:48.685Z,63.77
2019-01-28T04:15:17.378Z,61.03
2019-01-28T04:17:44.837Z,63.90
2019-01-28T04:20:13.712Z,61.47
2019-01-28T04:22:41.144Z,60.77
2019-01-28T04:25:09.730Z,56.43
2019-01-28T04:27:37.337Z,56.83
2019-01-28T04:30:08.331Z,57.57
2019-01-28T04:32:35.815Z,59.03
2019-01-28T04:35:04.382Z,56.80
2019-01-28T04:37:31.867Z,56.37
2019-01-28T04:39:59.369Z,54.60
2019-01-28T04:42:26.819Z,51.37
2019-01-28T04:44:54.284Z,58.30
2019-01-28T04:47:21.791Z,57.63
2019-01-28T04:49:49.336Z,51.43
2019-01-28T04:52:16.831Z,56.93
2019-01-28T04:54:44.323Z,56.40
2019-01-28T04:57:11.726Z,50.00
2019-01-28T04:59:39.229Z,57.57
2019-01-28T05:02:06.732Z,55.87
2019-01-28T05:04:34.217Z,50.83
2019-01-28T05:07:01.651Z,55.93
2019-01-28T05:09:29.088Z,55.87
2019-01-28T05:11:56.618Z,54.23
2019-01-28T05:14:24.066Z,53.93
2019-01-28T05:16:51.447Z,52.63
2019-01-28T05:19:18.942Z,48.83
2019-01-28T05:21:46.445Z,51.37
2019-01-28T05:24:13.882Z,52.73
2019-01-28T05:26:41.444Z,55.37
2019-01-28T05:29:08.850Z,55.80
2019-01-28T05:31:36.337Z,54.77
2019-01-28T05:34:04.054Z,54.90
2019-01-28T05:36:31.661Z,57.43
2019-01-28T05:38:59.181Z,56.40
2019-01-28T05:41:26.671Z,54.77
2019-01-28T05:43:54.149Z,60.43
2019-01-28T05:46:21.673Z,57.27
2019-01-28T05:48:49.170Z,58.00
2019-01-28T05:51:16.653Z,55.47
2019-01-28T05:53:44.164Z,52.90
2019-01-28T05:56:11.603Z,55.63
2019-01-28T05:58:39.058Z,56.13
2019-01-28T06:01:06.599Z,56.07
2019-01-28T06:03:34.133Z,59.40
2019-01-28T06:06:01.624Z,52.23
2019-01-28T06:08:29.056Z,58.90
2019-01-28T06:10:56.523Z,52.83
2019-01-28T06:13:23.985Z,57.23
2019-01-28T06:15:51.472Z,55.87
2019-01-28T06:18:18.828Z,55.17
2019-01-28T06:20:46.274Z,56.03
2019-01-28T06:23:13.767Z,59.97
2019-01-28T06:25:41.156Z,56.87
2019-01-28T06:28:08.745Z,59.50
2019-01-28T06:30:36.189Z,55.13
2019-01-28T06:33:03.944Z,48.37
2019-01-28T06:35:31.356Z,49.27
2019-01-28T06:37:59.056Z,58.50
2019-01-28T06:40:29.386Z,54.67
2019-01-28T06:42:56.900Z,56.87
2019-01-28T06:45:24.525Z,54.50
2019-01-28T06:47:52.206Z,56.40
2019-01-28T06:50:20.276Z,60.10
2019-01-28T06:52:47.762Z,61.07
2019-01-28T06:55:15.362Z,55.90
2019-01-28T06:57:42.959Z,51.57
2019-01-28T07:00:31.549Z,50.47
2019-01-28T07:02:59.430Z,49.13
2019-01-28T07:05:27.115Z,57.10
2019-01-28T07:07:54.610Z,50.00
2019-01-28T07:10:22.186Z,52.10
2019-01-28T07:12:49.721Z,49.50
2019-01-28T07:15:17.830Z,51.93
2019-01-28T07:17:45.389Z,50.97
2019-01-28T07:20:23.354Z,50.33
2019-01-28T07:22:50.879Z,50.87
2019-01-28T07:25:18.455Z,55.73
2019-01-28T07:27:45.885Z,56.83
2019-01-28T07:30:17.227Z,55.47
2019-01-28T07:32:44.675Z,56.30
2019-01-28T07:35:12.362Z,58.07
2019-01-28T07:37:39.898Z,57.00
2019-01-28T07:40:08.339Z,58.43
2019-01-28T07:42:35.863Z,63.53
2019-01-28T07:45:04.343Z,66.13
2019-01-28T07:47:31.722Z,64.00
2019-01-28T07:49:59.184Z,70.37
2019-01-28T07:52:26.914Z,73.17
2019-01-28T07:54:54.288Z,68.77
2019-01-28T07:57:21.730Z,72.83
2019-01-28T07:59:49.178Z,71.47
2019-01-28T08:02:16.565Z,65.77
2019-01-28T08:04:43.982Z,65.93
2019-01-28T08:07:11.499Z,65.63
2019-01-28T08:09:38.895Z,68.40
2019-01-28T08:12:06.438Z,59.83
2019-01-28T08:14:33.973Z,60.97
2019-01-28T08:17:01.355Z,61.57
2019-01-28T08:19:28.784Z,61.07
2019-01-28T08:21:56.402Z,57.40
2019-01-28T08:24:24.023Z,59.07
2019-01-28T08:26:51.585Z,62.00
2019-01-28T08:29:19.105Z,54.67
2019-01-28T08:31:46.538Z,56.90
2019-01-28T08:34:13.916Z,60.10
2019-01-28T08:36:41.345Z,64.67
2019-01-28T08:39:09.206Z,74.60
2019-01-28T08:41:36.799Z,67.70
2019-01-28T08:44:04.614Z,65.47
2019-01-28T08:46:32.138Z,52.03
2019-01-28T08:48:59.547Z,61.70
2019-01-28T08:51:27.093Z,57.17
2019-01-28T08:53:54.520Z,64.67
2019-01-28T08:56:23.353Z,72.57
2019-01-28T08:58:50.958Z,68.70
2019-01-28T09:01:18.580Z,66.47
2019-01-28T09:03:45.954Z,58.80
2019-01-28T09:06:13.377Z,64.37
2019-01-28T09:08:40.775Z,63.80
2019-01-28T09:11:08.286Z,61.83
2019-01-28T09:13:35.646Z,58.13
2019-01-28T09:16:03.243Z,56.57
2019-01-28T09:18:30.644Z,62.90
2019-01-28T09:20:58.015Z,57.77
2019-01-28T09:23:25.496Z,61.70
2019-01-28T09:25:53.111Z,60.83
2019-01-28T09:28:20.482Z,53.30
2019-01-28T09:30:48.957Z,67.67
2019-01-28T09:33:16.625Z,61.13
2019-01-28T09:35:44.031Z,59.33
2019-01-28T09:38:11.385Z,61.47
2019-01-28T09:40:38.805Z,61.60
2019-01-28T09:43:06.891Z,65.70
2019-01-28T09:45:36.902Z,61.30
2019-01-28T09:48:05.065Z,59.87
2019-01-28T09:50:32.671Z,57.20
2019-01-28T09:53:00.330Z,59.23
2019-01-28T09:55:27.915Z,59.70
2019-01-28T09:57:55.633Z,53.03
2019-01-28T10:00:26.575Z,54.17
2019-01-28T10:02:54.268Z,58.43
2019-01-28T10:05:22.117Z,53.67
2019-01-28T10:07:49.579Z,49.97
2019-01-28T10:10:17.387Z,53.53
2019-01-28T10:12:45.138Z,50.57
2019-01-28T10:15:15.031Z,46.60
2019-01-28T10:17:42.441Z,49.57
2019-01-28T10:20:17.336Z,44.43
2019-01-28T10:22:44.882Z,44.47
2019-01-28T10:25:13.146Z,49.50
2019-01-28T10:27:40.709Z,43.40
2019-01-28T10:30:10.032Z,40.93
2019-01-28T10:32:37.502Z,43.90
2019-01-28T10:35:06.047Z,39.03
2019-01-28T10:37:33.686Z,38.93
2019-01-28T10:40:01.144Z,38.63
2019-01-28T10:42:28.597Z,39.87
2019-01-28T10:44:56.144Z,40.43
2019-01-28T10:47:23.645Z,37.50
2019-01-28T10:49:51.090Z,37.27
2019-01-28T10:52:18.604Z,41.37
2019-01-28T10:54:46.093Z,39.70
2019-01-28T10:57:14.013Z,40.00
2019-01-28T10:59:41.493Z,32.23
2019-01-28T11:02:09.379Z,26.03
2019-01-28T11:04:36.818Z,24.10
2019-01-28T11:07:04.289Z,17.83
2019-01-28T11:09:31.869Z,18.20
2019-01-28T11:11:59.390Z,16.87
2019-01-28T11:14:26.941Z,17.13
2019-01-28T11:16:54.427Z,18.63
2019-01-28T11:19:22.109Z,15.30
2019-01-28T11:21:49.633Z,15.73
2019-01-28T11:24:17.081Z,17.17
2019-01-28T11:26:44.565Z,18.73
2019-01-28T11:29:12.084Z,14.70
2019-01-28T11:31:39.610Z,16.37
2019-01-28T11:34:07.512Z,18.27
2019-01-28T11:36:35.231Z,13.77
2019-01-28T11:39:05.127Z,15.70
2019-01-28T11:41:32.971Z,23.53
2019-01-28T11:44:00.496Z,17.03
2019-01-28T11:46:28.175Z,20.37
2019-01-28T11:48:55.841Z,17.30
2019-01-28T11:51:23.322Z,17.60
2019-01-28T11:53:50.778Z,17.80
2019-01-28T11:56:18.260Z,16.67
2019-01-28T11:58:45.721Z,19.70
2019-01-28T12:01:32.186Z,18.47
2019-01-28T12:03:59.763Z,19.00
2019-01-28T12:06:27.551Z,20.13
2019-01-28T12:08:55.006Z,19.07
2019-01-28T12:11:22.462Z,16.40
2019-01-28T12:13:49.914Z,19.07
2019-01-28T12:16:17.413Z,17.10
2019-01-28T12:18:44.886Z,17.77
2019-01-28T12:21:12.578Z,19.20
2019-01-28T12:23:39.998Z,15.67
2019-01-28T12:26:07.437Z,18.53
2019-01-28T12:28:35.006Z,18.83
2019-01-28T12:31:02.707Z,15.07
2019-01-28T12:33:30.164Z,19.07
2019-01-28T12:35:58.195Z,18.03
2019-01-28T12:38:25.584Z,19.98
2019-01-28T12:40:53.026Z,17.97
2019-01-28T12:43:20.558Z,19.57
2019-01-28T12:45:48.036Z,19.70
2019-01-28T12:48:15.595Z,19.67
2019-01-28T12:50:43.155Z,22.20
2019-01-28T12:53:10.693Z,20.20
2019-01-28T12:55:38.138Z,21.77
2019-01-28T12:58:06.890Z,17.87
2019-01-28T13:00:40.083Z,17.50
2019-01-28T13:03:09.028Z,20.63
2019-01-28T13:05:36.713Z,19.60
2019-01-28T13:08:04.714Z,18.67
2019-01-28T13:10:32.274Z,18.43
2019-01-28T13:12:59.783Z,19.30
2019-01-28T13:15:27.953Z,20.50
2019-01-28T13:17:55.962Z,17.67
2019-01-28T13:20:24.038Z,19.47
2019-01-28T13:22:51.721Z,18.77
2019-01-28T13:25:20.285Z,20.87
2019-01-28T13:27:47.783Z,24.10
2019-01-28T13:30:20.666Z,21.83
2019-01-28T13:32:49.783Z,21.00
2019-01-28T13:35:17.557Z,20.30
2019-01-28T13:37:45.012Z,22.27
2019-01-28T13:40:13.949Z,21.87
2019-01-28T13:42:41.450Z,20.40
2019-01-28T13:45:10.361Z,23.00
2019-01-28T13:47:38.186Z,22.03
2019-01-28T13:50:08.665Z,18.23
2019-01-28T13:52:36.193Z,22.90
2019-01-28T13:55:04.399Z,18.20
2019-01-28T13:57:31.843Z,16.57
2019-01-28T13:59:59.246Z,18.77
2019-01-28T14:02:26.747Z,19.80
2019-01-28T14:04:54.164Z,19.93
2019-01-28T14:07:21.757Z,21.47
2019-01-28T14:09:49.304Z,16.87
2019-01-28T14:12:16.751Z,18.63
2019-01-28T14:14:44.320Z,20.57
2019-01-28T14:17:11.714Z,18.57
2019-01-28T14:19:46.215Z,16.57
2019-01-28T14:22:08.491Z,21.23
2019-01-28T14:24:35.945Z,18.80
2019-01-28T14:27:03.542Z,19.70
2019-01-28T14:29:31.242Z,21.17
2019-01-28T14:31:58.883Z,23.17
2019-01-28T14:34:26.446Z,21.17
2019-01-28T14:36:54.056Z,18.37
2019-01-28T14:39:21.532Z,18.13
2019-01-28T14:41:48.994Z,21.03
2019-01-28T14:44:16.451Z,19.80
2019-01-28T14:46:43.987Z,25.80
2019-01-28T14:49:11.624Z,20.17
2019-01-28T14:51:39.196Z,21.07
2019-01-28T14:54:06.649Z,18.60
2019-01-28T14:56:34.144Z,19.07
2019-01-28T14:59:01.520Z,17.37
2019-01-28T15:01:29.001Z,24.53
2019-01-28T15:03:56.506Z,21.93
2019-01-28T15:06:23.960Z,15.50
2019-01-28T15:08:51.380Z,23.43
2019-01-28T15:11:18.828Z,17.17
2019-01-28T15:13:46.226Z,18.77
2019-01-28T15:16:14.261Z,18.53
2019-01-28T15:18:41.733Z,18.20
2019-01-28T15:21:09.087Z,20.67
2019-01-28T15:23:36.535Z,19.70
2019-01-28T15:26:04.088Z,20.70
2019-01-28T15:28:31.518Z,18.53
2019-01-28T15:30:58.934Z,17.03
2019-01-28T15:33:26.458Z,19.70
2019-01-28T15:35:53.940Z,19.57
2019-01-28T15:38:21.432Z,17.30
2019-01-28T15:40:49.051Z,16.00
2019-01-28T15:43:16.577Z,17.93
2019-01-28T15:45:44.348Z,18.50
2019-01-28T15:48:11.960Z,19.50
2019-01-28T15:50:39.472Z,18.90
2019-01-28T15:53:07.938Z,20.93
2019-01-28T15:55:37.333Z,19.40
2019-01-28T15:58:05.857Z,21.83
2019-01-28T16:00:33.735Z,20.23
2019-01-28T16:03:01.925Z,19.60
2019-01-28T16:05:29.574Z,22.57
2019-01-28T16:07:57.019Z,19.90
2019-01-28T16:10:24.557Z,22.00
2019-01-28T16:12:52.171Z,23.30
2019-01-28T16:15:25.435Z,23.80
2019-01-28T16:17:52.916Z,24.87
2019-01-28T16:20:20.497Z,22.00
2019-01-28T16:22:48.463Z,25.23
2019-01-28T16:25:16.133Z,27.97
2019-01-28T16:27:43.727Z,22.87
2019-01-28T16:30:16.940Z,27.33
2019-01-28T16:32:44.543Z,26.77
2019-01-28T16:35:13.046Z,28.67
2019-01-28T16:37:40.421Z,27.27
2019-01-28T16:40:10.351Z,24.63
2019-01-28T16:42:38.699Z,25.77
2019-01-28T16:45:07.354Z,22.30
2019-01-28T16:47:34.794Z,26.83
2019-01-28T16:50:02.276Z,23.30
2019-01-28T16:52:29.690Z,27.30
2019-01-28T16:54:57.157Z,27.23
2019-01-28T16:57:24.703Z,25.70
2019-01-28T16:59:52.401Z,25.30
2019-01-28T17:02:20.259Z,26.00
2019-01-28T17:04:47.726Z,23.47
2019-01-28T17:07:15.171Z,23.10
2019-01-28T17:09:42.603Z,22.90
2019-01-28T17:12:10.115Z,22.17
2019-01-28T17:14:37.597Z,18.80
2019-01-28T17:17:05.065Z,20.20
2019-01-28T17:19:32.649Z,21.40
2019-01-28T17:22:00.107Z,20.93
2019-01-28T17:24:27.543Z,19.27
2019-01-28T17:26:55.071Z,19.53
2019-01-28T17:29:22.493Z,19.80
2019-01-28T17:31:49.982Z,20.40
2019-01-28T17:34:17.876Z,20.80
2019-01-28T17:36:45.537Z,20.73
2019-01-28T17:39:13.069Z,23.00
2019-01-28T17:41:40.697Z,20.07
2019-01-28T17:44:08.157Z,19.73
2019-01-28T17:46:35.557Z,22.27
2019-01-28T17:49:03.143Z,21.67
2019-01-28T17:51:30.743Z,22.00
2019-01-28T17:53:58.170Z,19.63
2019-01-28T17:56:25.615Z,20.83
2019-01-28T17:58:53.061Z,19.77
2019-01-28T18:01:20.527Z,22.50
2019-01-28T18:03:47.953Z,18.67
2019-01-28T18:06:16.243Z,16.23
2019-01-28T18:08:43.710Z,22.53
2019-01-28T18:11:11.195Z,21.30
2019-01-28T18:13:38.694Z,17.77
2019-01-28T18:16:06.279Z,21.27
2019-01-28T18:18:33.725Z,21.43
2019-01-28T18:21:01.221Z,20.60
2019-01-28T18:24:00.170Z,18.63
2019-01-28T18:26:27.922Z,20.03
2019-01-28T18:28:55.391Z,20.70
2019-01-28T18:31:22.848Z,21.43
2019-01-28T18:33:50.295Z,19.33
2019-01-28T18:36:17.825Z,20.00
2019-01-28T18:38:45.474Z,20.70
2019-01-28T18:41:12.951Z,23.27
2019-01-28T18:43:40.341Z,20.23
2019-01-28T18:46:07.796Z,20.60
2019-01-28T18:48:35.254Z,17.73
2019-01-28T18:51:02.871Z,21.37
2019-01-28T18:53:30.327Z,20.23
2019-01-28T18:55:57.780Z,21.93
2019-01-28T18:58:25.273Z,22.77
2019-01-28T19:00:52.724Z,20.60
2019-01-28T19:03:20.276Z,19.80
2019-01-28T19:06:11.390Z,23.13
2019-01-28T19:08:50.045Z,22.67
2019-01-28T19:11:37.099Z,22.30
2019-01-28T19:14:23.221Z,22.87
2019-01-28T19:17:08.773Z,22.87
2019-01-28T19:20:10.786Z,20.50
2019-01-28T19:22:38.249Z,20.93
2019-01-28T19:25:07.402Z,21.77
2019-01-28T19:27:34.825Z,24.73
2019-01-28T19:30:02.291Z,22.23
2019-01-28T19:32:29.766Z,22.73
2019-01-28T19:34:57.189Z,25.40
2019-01-28T19:37:24.845Z,26.13
2019-01-28T19:39:52.515Z,24.73
2019-01-28T19:42:20.007Z,25.47
2019-01-28T19:44:47.563Z,26.37
2019-01-28T19:47:15.183Z,26.63
2019-01-28T19:49:42.639Z,26.37
2019-01-28T19:52:10.079Z,29.07
2019-01-28T19:54:37.582Z,31.23
2019-01-28T19:57:05.041Z,41.87
2019-01-28T19:59:32.525Z,28.23
2019-01-28T20:02:00.152Z,30.63
2019-01-28T20:04:28.539Z,30.97
2019-01-28T20:06:57.408Z,30.10
2019-01-28T20:09:25.320Z,32.00
2019-01-28T20:11:53.469Z,29.47
2019-01-28T20:14:21.345Z,35.40
2019-01-28T20:16:48.780Z,35.93
2019-01-28T20:19:16.351Z,32.53
2019-01-28T20:21:44.353Z,25.80
2019-01-28T20:24:11.867Z,33.23
2019-01-28T20:26:39.402Z,32.13
2019-01-28T20:29:07.045Z,30.73
2019-01-28T20:31:34.453Z,31.97
2019-01-28T20:34:01.831Z,29.40
2019-01-28T20:36:29.836Z,33.57
2019-01-28T20:38:57.847Z,28.10
2019-01-28T20:41:25.257Z,31.17
2019-01-28T20:43:53.322Z,30.70
2019-01-28T20:46:21.028Z,29.30
2019-01-28T20:48:48.501Z,27.17
2019-01-28T20:51:15.961Z,30.83
2019-01-28T20:53:43.898Z,28.33
2019-01-28T20:56:11.397Z,26.10
2019-01-28T20:58:39.014Z,28.07
2019-01-28T21:01:06.437Z,27.67
2019-01-28T21:03:34.179Z,27.07
2019-01-28T21:06:01.723Z,29.43
2019-01-28T21:08:29.554Z,28.47
2019-01-28T21:10:57.076Z,28.77
2019-01-28T21:13:24.636Z,30.27
2019-01-28T21:15:52.073Z,29.73
2019-01-28T21:18:19.412Z,28.40
2019-01-28T21:20:46.825Z,28.63
2019-01-28T21:23:14.245Z,29.27
2019-01-28T21:25:41.720Z,31.37
2019-01-28T21:28:09.091Z,28.00
2019-01-28T21:30:36.514Z,25.93
2019-01-28T21:33:04.029Z,27.83
2019-01-28T21:35:43.172Z,27.70
2019-01-28T21:38:13.580Z,27.23
2019-01-28T21:40:41.016Z,26.13
2019-01-28T21:43:08.437Z,29.77
2019-01-28T21:45:35.947Z,45.70
2019-01-28T21:48:04.069Z,47.37
2019-01-28T21:50:31.683Z,41.73
2019-01-28T21:52:59.082Z,48.47
2019-01-28T21:55:26.619Z,46.80
2019-01-28T21:57:54.030Z,41.20
2019-01-28T22:00:21.850Z,45.53
2019-01-28T22:02:49.218Z,34.90
2019-01-28T22:05:16.637Z,39.70
2019-01-28T22:07:44.201Z,38.80
2019-01-28T22:10:12.221Z,39.00
2019-01-28T22:12:39.745Z,37.83
2019-01-28T22:15:10.735Z,36.60
2019-01-28T22:17:38.169Z,34.00
2019-01-28T22:20:06.181Z,35.80
2019-01-28T22:22:33.655Z,29.27
2019-01-28T22:25:01.068Z,34.40
2019-01-28T22:27:28.743Z,31.27
2019-01-28T22:29:56.357Z,32.10
2019-01-28T22:32:23.790Z,31.33
2019-01-28T22:34:51.201Z,29.43
2019-01-28T22:37:18.674Z,28.33
2019-01-28T22:39:46.113Z,27.40
2019-01-28T22:42:21.057Z,28.23
2019-01-28T22:44:43.401Z,21.40
2019-01-28T22:47:10.857Z,27.90
2019-01-28T22:49:38.809Z,26.03
2019-01-28T22:52:07.947Z,24.93
2019-01-28T22:54:35.895Z,25.40
2019-01-28T22:57:03.584Z,22.87
2019-01-28T22:59:31.004Z,20.10
2019-01-28T23:01:58.429Z,20.43
2019-01-28T23:04:25.780Z,21.63
2019-01-28T23:06:53.193Z,21.13
2019-01-28T23:09:20.614Z,18.83
2019-01-28T23:11:47.973Z,21.23
2019-01-28T23:14:15.497Z,21.73
2019-01-28T23:16:43.032Z,21.53
2019-01-28T23:19:10.484Z,22.33
2019-01-28T23:21:37.909Z,21.43
2019-01-28T23:24:05.667Z,21.43
2019-01-28T23:26:33.033Z,21.77
2019-01-28T23:29:00.589Z,24.03
2019-01-28T23:31:28.003Z,21.60
2019-01-28T23:33:55.433Z,23.47
2019-01-28T23:36:22.850Z,22.03
2019-01-28T23:38:50.338Z,22.63
2019-01-28T23:41:17.787Z,20.97
2019-01-28T23:43:45.222Z,24.00
2019-01-28T23:46:12.697Z,22.50
2019-01-28T23:48:40.170Z,23.20
2019-01-28T23:51:07.626Z,23.37
2019-01-28T23:53:35.033Z,23.23
2019-01-28T23:56:02.564Z,22.60
2019-01-28T23:58:30.018Z,23.80
